AirNav   TITAN Aviation Fuels
 
 1557 users online  

KTXW
(formerly T65)
Mid Valley Airport
Weslaco, Texas, USA

GOING TO WESLACO?


FAA INFORMATION EFFECTIVE 06 OCTOBER 2022

Location

FAA Identifier: TXW
Lat/Long: 26-10-43.3470N 097-58-26.4230W
26-10.722450N 097-58.440383W
26.1787075,-97.9740064
(estimated)
Elevation: 69.9 ft. / 21 m (estimated)
Variation: 04E (2020)
From city: 1 mile NE of WESLACO, TX
Time zone: UTC -5 (UTC -6 during Standard Time)
Zip code: 78596

Airport Operations

Airport use: Open to the public
Activation date: 07/1945
Control tower: no
ARTCC: HOUSTON CENTER
FSS: SAN ANGELO FLIGHT SERVICE STATION
NOTAMs facility: TXW (NOTAM-D service available)
Attendance: MON-SAT 0700-1800
PRIOR ARRANGEMENT RQRD OTHER TIMES FOR ARPT ATTENDANT.
Wind indicator: lighted
Segmented circle: yes
Lights: MIRL RWY 14/32 PRESET LOW INTST; TO INCR INTST AND ACTVT REIL RWY 32 - CTAF.
Beacon: white-green (lighted land airport)
Operates sunset to sunrise.
International operations: customs landing rights airport

Airport Communications

CTAF/UNICOM: 122.8
WX AWOS-3PT: 118.575 (956-447-0414)
VALLEY APPROACH: 121.0
VALLEY DEPARTURE: 121.0
CLEARANCE DELIVERY: 125.95
WX ASOS at MFE (14 nm W): PHONE 956-664-8212
WX ASOS at HRL (17 nm E): 124.85 (956-428-7297)
WX AWOS-3 at EBG (18 nm NW): 118.025 (956-380-1426)

Nearby radio navigation aids

VOR radial/distance  VOR name  Freq  Var
MFEr080/14.4MC ALLEN VOR/DME117.2009E
REXr046/17.2REYNOSA VOR/DME112.4008E
HRLr255/17.6HARLINGEN VOR/DME113.6505E
MAMr311/34.5MATAMOROS VOR/DME114.3004E
BROr286/35.7BROWNSVILLE VORTAC116.3009E

Airport Services

Fuel available: 100LL JET-A
100LL:FUEL AVBL 24 HRS SELF-SERVE.
Parking: tiedowns
Airframe service: MAJOR
Powerplant service: MAJOR
Bottled oxygen: NONE
Bulk oxygen: NONE

Runway Information

Runway 14/32

Dimensions: 6002 x 75 ft. / 1829 x 23 m
Surface: asphalt, in excellent condition
Weight bearing capacity: 
Single wheel: 12.5
Runway edge lights: medium intensity
RUNWAY 14  RUNWAY 32
Latitude: 26-11.110567N26-10.334317N
Longitude: 097-58.781617W097-58.099133W
Elevation: 69.4 ft.69.3 ft.
Traffic pattern: leftright
Runway heading: 138 magnetic, 142 true318 magnetic, 322 true
Markings: nonprecision, in good conditionnonprecision, in good condition
Visual slope indicator: 4-light PAPI on left (3.00 degrees glide path)4-light PAPI on left (3.18 degrees glide path)
Runway end identifier lights: noyes
Touchdown point: yes, no lightsyes, no lights
Obstructions: 20 ft. trees, 959 ft. from runway, 189 ft. left of centerline, 37:1 slope to clear
APCH SLOPE 50:1 TO DSPLCD THLD.
32 ft. pole, 1239 ft. from runway, 259 ft. left of centerline, 32:1 slope to clear

Airport Ownership and Management from official FAA records

Ownership: Publicly-owned
Owner: CITY OF WESLACO
255 S. KANSAS AVENUE
WESLACO, TX 78596
Phone 956-968-3181
Manager: ANDREW MUNOZ
1909 JOE STEPHENS
WESLACO, TX 75459
Phone 956-969-0291
AMUNOZ@WESLACOTX.GOV PQUINTERO@WESLACOTX.GOV

Airport Operational Statistics

Aircraft based on the field: 29
Single engine airplanes: 24
Multi engine airplanes: 4
Helicopters: 1
    
Aircraft operations: avg 51/month *
71% transient general aviation
28% local general aviation
1% military
* for 12-month period ending 06 May 2020

Additional Remarks

30 FT POLE 315 FT NE OF HELIPAD.

Instrument Procedures

NOTE: All procedures below are presented as PDF files. If you need a reader for these files, you should download the free Adobe Reader.

NOT FOR NAVIGATION. Please procure official charts for flight.
FAA instrument procedures published for use from 6 October 2022 at 0901Z to 3 November 2022 at 0900Z.

 
IAPs - Instrument Approach Procedures
RNAV (GPS) RWY 14   download (207KB)
VOR-A   download (154KB)
NOTE: Special Alternate Minimums apply   download (50KB)
NOTE: Special Take-Off Minimums/Departure Procedures apply   download (159KB)

Other nearby airports with instrument procedures:

KMFE - Mc Allen Miller International Airport (14 nm W)
KHRL - Valley International Airport (17 nm E)
KEBG - South Texas International Airport at Edinburg (18 nm NW)
KBRO - Brownsville/South Padre Island International Airport (34 nm SE)
KPIL - Port Isabel-Cameron County Airport (34 nm E)
 
Loc | Ops | Rwys | IFR | FBO | Links
Com | Nav | Svcs | Stats | Notes
Area around KTXW (Mid Valley Airport)
 
Road maps at: MapQuest Bing Google
 
Aerial photo
WARNING: Photo may not be current or correct
Aerial photo of KTXW (Mid Valley Airport)
Do you have a better or more recent aerial photo of Mid Valley Airport that you would like to share? If so, please send us your photo.

 
Sectional chart

 
Airport diagram
CAUTION: Diagram may not be current
Diagram of KTXW (Mid Valley Airport)
 
Airport distance calculator
Flying to Mid Valley Airport? Find the distance to fly.

From to KTXW

Sunrise and sunset
Times for 06-Oct-2022
 Local
(UTC-5)
 Zulu
(UTC)
Morning civil twilight07:0412:04
Sunrise07:2812:28
Sunset19:1300:13
Evening civil twilight19:3600:36

Current date and time
Zulu (UTC)  06-Oct-2022 18:02:58
Local (UTC-5)  06-Oct-2022 13:02:58
 
METAR
KTXW 061730Z AUTO 00000KT 10SM CLR 28/18 A3011 RMK AO2 T02850177
KMFE 
15nm W 
061753Z VRB04G17KT 10SM CLR 29/18 A3011 RMK AO2 SLP193 T02940178 10311 20217 58007
MMRX 
16nm SW 
061744Z 36002KT 9SM SCT040 BKN200 29/16 A3011 RMK SLP243 57007 917 8/108
KHRL 
18nm E 
061752Z VRB04KT 10SM FEW043 SCT060 30/18 A3009 RMK AO2 SLP190 T03000183 10311 20194 58006
KEBG 
18nm NW 
061755Z AUTO 00000KT 10SM SCT055 30/18 A3011 RMK AO2 T03040179 10305 20176 PWINO
TAF
KMFE 
15nm W 
061120Z 0612/0712 VRB04KT P6SM FEW070 SCT150 BKN250 FM062000 05009KT P6SM SCT040 BKN150 BKN250 FM070200 09005KT P6SM VCSH OVC250
MMRX 
16nm SW 
060458Z 0606/0706 00000KT P6SM SCT040 SCT100 TEMPO 0610/0614 3SM BR HZ BKN010 FM061600 12010KT P6SM BKN200 FM070400 08005KT P6SM SCT100 BKN220
KHRL 
18nm E 
061120Z 0612/0712 VRB04KT P6SM FEW150 BKN250 FM061900 06010KT P6SM SCT035 BKN050 BKN150 FM070500 07009KT P6SM SCT025 BKN035 PROB30 0706/0712 4SM TSRA BR OVC025CB
NOTAMs
Click for the latest NOTAMs
NOTAMs are issued by the DoD/FAA and will open in a separate window not controlled by AirNav.

 

 
 

FBO, Fuel Providers, and Aircraft Ground Support

  
 Business Name 
 
 Contact 
 
 Services / Description 
 
Fuel Prices
 
Comments
  
Weslaco Mid Valley Aviation UNICOM 122.80
956-969-0291
[web site]
[email]
Mid Valley Airport offers convenient, reliable and friendly service to all of our local, regional and International passengers.

Mid Valley Airport is an International Point of Entry with US Customs and Border Protection on-site to expedite your International travel.
More info and photos of Weslaco Mid Valley Aviation
 
AirBoss™ fuel program   U.S. Customs Service   WSI Pilotbrief   Courtesy transportation   Enterprise Rent-A-Car   Wireless Internet Access (WiFi)   National Business Aviation Association  
 
Avfuel
100LL Jet A
FS $5.00 $4.50 
PS $5.00 $4.50 
GUARANTEED
AirBossMEMBER
PRICING
FS $4.80 $4.35 
PS $4.80 $4.35 
 
   2 read write
FS=Full service
PS=Pump service
Update Fuel Prices
 

Would you like to see your business listed on this page?

 If your business provides an interesting product or service to pilots, flight crews, aircraft, or users of the Mid Valley Airport, you should consider listing it here.  To start the listing process, click on the button below
 
Add a business
 

Other Pages about Mid Valley Airport

weslacoairport.com
 
Update a link
 
Copyright © AirNav, LLC. All rights reserved. Privacy Policy  Contact